Time,TemperatureF,DewpointF,PressureIn,WindDirection,WindDirectionDegrees,WindSpeedMPH,WindSpeedGustMPH,Humidity,HourlyPrecipIn,Conditions,Clouds,dailyrainin,SoftwareType,DateUTC
2013-01-18 00:02:00,30.0,30.0,-100.00,South,185,2.0,4.0,99,-99.99,,,-99.99,,2013-01-18 06:02:00,
2013-01-18 00:33:00,30.0,30.0,-100.00,South,185,2.0,4.0,99,-99.99,,,-99.99,,2013-01-18 06:33:00,
2013-01-18 00:43:00,30.0,30.0,-100.00,South,185,2.0,4.0,99,-99.99,,,-99.99,,2013-01-18 06:43:00,
2013-01-18 00:53:00,30.0,30.0,-100.00,South,185,2.0,4.0,99,-99.99,,,-99.99,,2013-01-18 06:53:00,
2013-01-18 01:02:00,31.0,31.0,-100.00,SSE,155,5.0,6.0,99,-99.99,,,-99.99,,2013-01-18 07:02:00,
2013-01-18 01:33:00,31.0,31.0,-100.00,SSE,155,5.0,6.0,99,-99.99,,,-99.99,,2013-01-18 07:33:00,
2013-01-18 01:42:00,31.0,31.0,-100.00,SSE,155,5.0,6.0,99,-99.99,,,-99.99,,2013-01-18 07:42:00,
2013-01-18 01:52:00,31.0,31.0,-100.00,SSE,155,5.0,6.0,99,-99.99,,,-99.99,,2013-01-18 07:52:00,
2013-01-18 02:02:00,32.0,31.0,-100.00,SSE,165,2.0,4.0,97,-99.99,,,-99.99,,2013-01-18 08:02:00,
2013-01-18 02:33:00,32.0,31.0,-100.00,SSE,165,2.0,4.0,97,-99.99,,,-99.99,,2013-01-18 08:33:00,
2013-01-18 02:43:00,32.0,31.0,-100.00,SSE,165,2.0,4.0,97,-99.99,,,-99.99,,2013-01-18 08:43:00,
2013-01-18 02:53:00,32.0,31.0,-100.00,SSE,165,2.0,4.0,97,-99.99,,,-99.99,,2013-01-18 08:53:00,
2013-01-18 03:02:00,33.0,31.0,-100.00,SSE,155,3.0,4.0,93,-99.99,,,-99.99,,2013-01-18 09:02:00,
2013-01-18 03:33:00,33.0,31.0,-100.00,SSE,155,3.0,4.0,93,-99.99,,,-99.99,,2013-01-18 09:33:00,
2013-01-18 03:43:00,33.0,31.0,-100.00,SSE,155,3.0,4.0,93,-99.99,,,-99.99,,2013-01-18 09:43:00,
2013-01-18 03:53:00,33.0,31.0,-100.00,SSE,155,3.0,4.0,93,-99.99,,,-99.99,,2013-01-18 09:53:00,
2013-01-18 04:02:00,31.0,28.0,-100.00,East,80,6.0,6.0,88,-99.99,,,-99.99,,2013-01-18 10:02:00,
2013-01-18 04:33:00,31.0,28.0,-100.00,East,80,6.0,6.0,88,-99.99,,,-99.99,,2013-01-18 10:33:00,
2013-01-18 04:43:00,31.0,28.0,-100.00,East,80,6.0,6.0,88,-99.99,,,-99.99,,2013-01-18 10:43:00,
2013-01-18 04:53:00,31.0,28.0,-100.00,East,80,6.0,6.0,88,-99.99,,,-99.99,,2013-01-18 10:53:00,
2013-01-18 05:02:00,31.0,28.0,-100.00,NE,55,2.0,3.0,86,-99.99,,,-99.99,,2013-01-18 11:02:00,
2013-01-18 05:33:00,31.0,28.0,-100.00,NE,55,2.0,3.0,86,-99.99,,,-99.99,,2013-01-18 11:33:00,
2013-01-18 05:42:00,31.0,28.0,-100.00,NE,55,2.0,3.0,86,-99.99,,,-99.99,,2013-01-18 11:42:00,
2013-01-18 05:53:00,31.0,28.0,-100.00,NE,55,2.0,3.0,86,-99.99,,,-99.99,,2013-01-18 11:53:00,
2013-01-18 06:02:00,33.0,29.0,-100.00,NW,315,4.0,6.0,84,-99.99,,,-99.99,,2013-01-18 12:02:00,
2013-01-18 06:33:00,33.0,29.0,-100.00,NW,315,4.0,6.0,84,-99.99,,,-99.99,,2013-01-18 12:33:00,
2013-01-18 06:43:00,33.0,29.0,-100.00,NW,315,4.0,6.0,84,-99.99,,,-99.99,,2013-01-18 12:43:00,
2013-01-18 06:53:00,33.0,29.0,-100.00,NW,315,4.0,6.0,84,-99.99,,,-99.99,,2013-01-18 12:53:00,
2013-01-18 07:02:00,32.0,27.0,-100.00,WNW,285,2.0,2.0,82,-99.99,,,-99.99,,2013-01-18 13:02:00,
2013-01-18 07:33:00,32.0,27.0,-100.00,WNW,285,2.0,2.0,82,-99.99,,,-99.99,,2013-01-18 13:33:00,
2013-01-18 07:43:00,32.0,27.0,-100.00,WNW,285,2.0,2.0,82,-99.99,,,-99.99,,2013-01-18 13:43:00,
2013-01-18 07:53:00,32.0,27.0,-100.00,WNW,285,2.0,2.0,82,-99.99,,,-99.99,,2013-01-18 13:53:00,
2013-01-18 08:02:00,33.0,28.0,-100.00,NNW,340,3.0,4.0,82,-99.99,,,-99.99,,2013-01-18 14:02:00,
2013-01-18 08:34:00,33.0,28.0,-100.00,NNW,340,3.0,4.0,82,-99.99,,,-99.99,,2013-01-18 14:34:00,
2013-01-18 08:43:00,33.0,28.0,-100.00,NNW,340,3.0,4.0,82,-99.99,,,-99.99,,2013-01-18 14:43:00,
2013-01-18 08:53:00,33.0,28.0,-100.00,NNW,340,3.0,4.0,82,-99.99,,,-99.99,,2013-01-18 14:53:00,
2013-01-18 09:02:00,32.0,29.0,-100.00,WNW,290,9.0,11.0,87,-99.99,,,-99.99,,2013-01-18 15:02:00,
2013-01-18 09:34:00,32.0,29.0,-100.00,WNW,290,9.0,11.0,87,-99.99,,,-99.99,,2013-01-18 15:34:00,
2013-01-18 09:43:00,32.0,29.0,-100.00,WNW,290,9.0,11.0,87,-99.99,,,-99.99,,2013-01-18 15:43:00,
2013-01-18 09:54:00,32.0,29.0,-100.00,WNW,290,9.0,11.0,87,-99.99,,,-99.99,,2013-01-18 15:54:00,
2013-01-18 10:02:00,36.0,29.0,-100.00,WNW,295,9.0,11.0,78,-99.99,,,-99.99,,2013-01-18 16:02:00,
2013-01-18 10:33:00,36.0,29.0,-100.00,WNW,295,9.0,11.0,78,-99.99,,,-99.99,,2013-01-18 16:33:00,
2013-01-18 10:43:00,36.0,29.0,-100.00,WNW,295,9.0,11.0,78,-99.99,,,-99.99,,2013-01-18 16:43:00,
2013-01-18 10:53:00,36.0,29.0,-100.00,WNW,295,9.0,11.0,78,-99.99,,,-99.99,,2013-01-18 16:53:00,
2013-01-18 11:02:00,38.0,29.0,-100.00,NW,305,10.0,12.0,72,-99.99,,,-99.99,,2013-01-18 17:02:00,
2013-01-18 11:34:00,38.0,29.0,-100.00,NW,305,10.0,12.0,72,-99.99,,,-99.99,,2013-01-18 17:34:00,
2013-01-18 11:43:00,38.0,29.0,-100.00,NW,305,10.0,12.0,72,-99.99,,,-99.99,,2013-01-18 17:43:00,
2013-01-18 11:53:00,38.0,29.0,-100.00,NW,305,10.0,12.0,72,-99.99,,,-99.99,,2013-01-18 17:53:00,
2013-01-18 12:02:00,40.0,31.0,-100.00,WNW,295,11.0,11.0,69,-99.99,,,-99.99,,2013-01-18 18:02:00,
2013-01-18 12:34:00,40.0,31.0,-100.00,WNW,295,11.0,11.0,69,-99.99,,,-99.99,,2013-01-18 18:34:00,
2013-01-18 12:43:00,40.0,31.0,-100.00,WNW,295,11.0,11.0,69,-99.99,,,-99.99,,2013-01-18 18:43:00,
2013-01-18 12:53:00,40.0,31.0,-100.00,WNW,295,11.0,11.0,69,-99.99,,,-99.99,,2013-01-18 18:53:00,
2013-01-18 13:02:00,40.0,32.0,-100.00,WNW,295,5.0,6.0,71,-99.99,,,-99.99,,2013-01-18 19:02:00,
2013-01-18 13:33:00,40.0,32.0,-100.00,WNW,295,5.0,6.0,71,-99.99,,,-99.99,,2013-01-18 19:33:00,
2013-01-18 13:43:00,40.0,32.0,-100.00,WNW,295,5.0,6.0,71,-99.99,,,-99.99,,2013-01-18 19:43:00,
2013-01-18 13:53:00,40.0,32.0,-100.00,WNW,295,5.0,6.0,71,-99.99,,,-99.99,,2013-01-18 19:53:00,
2013-01-18 14:02:00,43.0,31.0,-100.00,West,265,9.0,12.0,64,-99.99,,,-99.99,,2013-01-18 20:02:00,
2013-01-18 14:33:00,43.0,31.0,-100.00,West,265,9.0,12.0,64,-99.99,,,-99.99,,2013-01-18 20:33:00,
2013-01-18 14:43:00,43.0,31.0,-100.00,West,265,9.0,12.0,64,-99.99,,,-99.99,,2013-01-18 20:43:00,
2013-01-18 14:53:00,43.0,31.0,-100.00,West,265,9.0,12.0,64,-99.99,,,-99.99,,2013-01-18 20:53:00,
2013-01-18 15:02:00,43.0,30.0,-100.00,WNW,290,8.0,11.0,62,-99.99,,,-99.99,,2013-01-18 21:02:00,
2013-01-18 15:33:00,43.0,30.0,-100.00,WNW,290,8.0,11.0,62,-99.99,,,-99.99,,2013-01-18 21:33:00,
2013-01-18 15:43:00,43.0,30.0,-100.00,WNW,290,8.0,11.0,62,-99.99,,,-99.99,,2013-01-18 21:43:00,
2013-01-18 15:53:00,43.0,30.0,-100.00,WNW,290,8.0,11.0,62,-99.99,,,-99.99,,2013-01-18 21:53:00,
2013-01-18 16:02:00,42.0,31.0,-100.00,WSW,250,4.0,5.0,64,-99.99,,,-99.99,,2013-01-18 22:02:00,
2013-01-18 16:33:00,42.0,31.0,-100.00,WSW,250,4.0,5.0,64,-99.99,,,-99.99,,2013-01-18 22:33:00,
2013-01-18 16:43:00,42.0,31.0,-100.00,WSW,250,4.0,5.0,64,-99.99,,,-99.99,,2013-01-18 22:43:00,
2013-01-18 16:53:00,42.0,31.0,-100.00,WSW,250,4.0,5.0,64,-99.99,,,-99.99,,2013-01-18 22:53:00,
2013-01-18 17:02:00,39.0,30.0,-100.00,West,270,8.0,9.0,71,-99.99,,,-99.99,,2013-01-18 23:02:00,
2013-01-18 17:33:00,39.0,30.0,-100.00,West,270,8.0,9.0,71,-99.99,,,-99.99,,2013-01-18 23:33:00,
2013-01-18 17:43:00,39.0,30.0,-100.00,West,270,8.0,9.0,71,-99.99,,,-99.99,,2013-01-18 23:43:00,
2013-01-18 17:53:00,39.0,30.0,-100.00,West,270,8.0,9.0,71,-99.99,,,-99.99,,2013-01-18 23:53:00,
2013-01-18 18:02:00,38.0,31.0,-100.00,West,280,7.0,9.0,74,-99.99,,,-99.99,,2013-01-19 00:02:00,
2013-01-18 18:33:00,38.0,31.0,-100.00,West,280,7.0,9.0,74,-99.99,,,-99.99,,2013-01-19 00:33:00,
2013-01-18 18:43:00,38.0,31.0,-100.00,West,280,7.0,9.0,74,-99.99,,,-99.99,,2013-01-19 00:43:00,
2013-01-18 18:53:00,38.0,31.0,-100.00,West,280,7.0,9.0,74,-99.99,,,-99.99,,2013-01-19 00:53:00,
2013-01-18 19:02:00,38.0,31.0,-100.00,West,275,4.0,5.0,76,-99.99,,,-99.99,,2013-01-19 01:02:00,
2013-01-18 19:33:00,38.0,31.0,-100.00,West,275,4.0,5.0,76,-99.99,,,-99.99,,2013-01-19 01:33:00,
2013-01-18 19:43:00,38.0,31.0,-100.00,West,275,4.0,5.0,76,-99.99,,,-99.99,,2013-01-19 01:43:00,
2013-01-18 19:53:00,38.0,31.0,-100.00,West,275,4.0,5.0,76,-99.99,,,-99.99,,2013-01-19 01:53:00,
2013-01-18 20:02:00,37.0,31.0,-100.00,WNW,295,2.0,4.0,78,-99.99,,,-99.99,,2013-01-19 02:02:00,
2013-01-18 20:33:00,37.0,31.0,-100.00,WNW,295,2.0,4.0,78,-99.99,,,-99.99,,2013-01-19 02:33:00,
2013-01-18 20:43:00,37.0,31.0,-100.00,WNW,295,2.0,4.0,78,-99.99,,,-99.99,,2013-01-19 02:43:00,
2013-01-18 20:53:00,37.0,31.0,-100.00,WNW,295,2.0,4.0,78,-99.99,,,-99.99,,2013-01-19 02:53:00,
2013-01-18 21:02:00,37.0,32.0,-100.00,NNW,335,4.0,6.0,80,-99.99,,,-99.99,,2013-01-19 03:02:00,
2013-01-18 21:33:00,37.0,32.0,-100.00,NNW,335,4.0,6.0,80,-99.99,,,-99.99,,2013-01-19 03:33:00,
2013-01-18 21:44:00,37.0,32.0,-100.00,NNW,335,4.0,6.0,80,-99.99,,,-99.99,,2013-01-19 03:44:00,
2013-01-18 21:53:00,37.0,32.0,-100.00,NNW,335,4.0,6.0,80,-99.99,,,-99.99,,2013-01-19 03:53:00,
2013-01-18 22:02:00,37.0,31.0,-100.00,WNW,300,3.0,4.0,81,-99.99,,,-99.99,,2013-01-19 04:02:00,
2013-01-18 22:33:00,37.0,31.0,-100.00,WNW,300,3.0,4.0,81,-99.99,,,-99.99,,2013-01-19 04:33:00,
2013-01-18 22:43:00,37.0,31.0,-100.00,WNW,300,3.0,4.0,81,-99.99,,,-99.99,,2013-01-19 04:43:00,
2013-01-18 22:53:00,37.0,31.0,-100.00,WNW,300,3.0,4.0,81,-99.99,,,-99.99,,2013-01-19 04:53:00,
2013-01-18 23:02:00,35.0,31.0,-100.00,NW,310,2.0,3.0,84,-99.99,,,-99.99,,2013-01-19 05:02:00,
2013-01-18 23:33:00,35.0,31.0,-100.00,NW,310,2.0,3.0,84,-99.99,,,-99.99,,2013-01-19 05:33:00,
2013-01-18 23:43:00,35.0,31.0,-100.00,NW,310,2.0,3.0,84,-99.99,,,-99.99,,2013-01-19 05:43:00,
2013-01-18 23:53:00,35.0,31.0,-100.00,NW,310,2.0,3.0,84,-99.99,,,-99.99,,2013-01-19 05:53:00,